Time;durP1;ratioP1;P1;durP2;ratioP2;P2;SDS_P1;SDS_P2;PMS_P1;PMS_P2;Temp;Humidity;BMP_temperature;BMP_pressure;BME280_temperature;BME280_humidity;BME280_pressure;Samples;Min_cycle;Max_cycle;Signal;HPM_P1;HPM_P2
2023/01/25 00:00:30;;;;;;;12.83;9.93;;;8.80;64.30;;;;;;5072467;28;20447;-66
2023/01/25 00:02:57;;;;;;;11.67;9.70;;;8.80;64.40;;;;;;5072192;28;20447;-66
2023/01/25 00:05:26;;;;;;;10.57;8.40;;;8.80;64.40;;;;;;5072511;28;20458;-66
2023/01/25 00:07:53;;;;;;;9.90;8.00;;;8.80;64.50;;;;;;5072071;28;20448;-65
2023/01/25 00:10:20;;;;;;;12.07;8.80;;;8.80;65.30;;;;;;5071652;28;20489;-66
2023/01/25 00:12:49;;;;;;;13.43;9.83;;;8.80;64.40;;;;;;5072327;28;20530;-65
2023/01/25 00:15:16;;;;;;;12.27;8.83;;;8.80;64.40;;;;;;5071044;28;20493;-67
2023/01/25 00:17:43;;;;;;;11.47;8.83;;;8.80;64.40;;;;;;5072048;28;20522;-66
2023/01/25 00:20:11;;;;;;;11.30;8.97;;;8.80;64.40;;;;;;5071530;28;20455;-66
2023/01/25 00:22:37;;;;;;;10.25;8.15;;;8.80;64.50;;;;;;5072062;28;20443;-65
2023/01/25 00:25:05;;;;;;;11.77;8.93;;;8.80;64.40;;;;;;5070615;28;20597;-65
2023/01/25 00:27:32;;;;;;;11.57;8.53;;;8.80;64.70;;;;;;5072122;28;20451;-65
2023/01/25 00:30:00;;;;;;;12.97;9.30;;;8.80;64.60;;;;;;5071686;28;20447;-66
2023/01/25 00:32:47;;;;;;;11.47;8.50;;;8.80;64.70;;;;;;5100616;28;20445;-66
2023/01/25 00:35:15;;;;;;;10.93;8.87;;;8.80;64.80;;;;;;5079051;28;20554;-66
2023/01/25 00:37:48;;;;;;;12.23;8.60;;;8.80;64.70;;;;;;5072128;28;20534;-66
2023/01/25 00:40:16;;;;;;;11.33;8.67;;;8.80;64.70;;;;;;5082808;28;20442;-66
2023/01/25 00:42:42;;;;;;;10.43;8.43;;;8.80;64.70;;;;;;5092136;28;20549;-65
2023/01/25 00:45:12;;;;;;;12.83;9.40;;;8.80;64.70;;;;;;5076714;28;20859;-66
2023/01/25 00:47:39;;;;;;;12.37;9.37;;;8.80;64.70;;;;;;5092254;28;20446;-66
2023/01/25 00:50:08;;;;;;;10.87;8.80;;;8.80;64.80;;;;;;5095097;28;20929;-66
2023/01/25 00:52:35;;;;;;;11.80;9.13;;;8.80;64.80;;;;;;5095986;28;20486;-66
2023/01/25 00:55:02;;;;;;;13.10;9.00;;;8.80;65.50;;;;;;5094081;28;20485;-65
2023/01/25 00:57:29;;;;;;;13.20;9.93;;;8.80;64.70;;;;;;5095703;28;20573;-66
2023/01/25 00:59:56;;;;;;;11.93;9.53;;;8.80;64.90;;;;;;5094498;28;20482;-65
2023/01/25 01:02:24;;;;;;;10.90;8.57;;;8.80;65.60;;;;;;5095176;28;20450;-66
2023/01/25 01:04:51;;;;;;;13.53;9.83;;;8.80;64.70;;;;;;5084786;28;20455;-66
2023/01/25 01:07:18;;;;;;;13.70;9.73;;;8.80;64.70;;;;;;5074939;28;20475;-66
2023/01/25 01:09:44;;;;;;;12.17;9.40;;;8.80;64.80;;;;;;5075678;28;20796;-66
2023/01/25 01:12:11;;;;;;;11.97;9.13;;;8.80;65.00;;;;;;5074665;28;20444;-66
2023/01/25 01:14:38;;;;;;;12.40;8.97;;;8.80;65.00;;;;;;5085034;28;20451;-65
2023/01/25 01:17:05;;;;;;;11.77;9.53;;;8.80;65.10;;;;;;5074443;28;20593;-64
2023/01/25 01:19:34;;;;;;;12.77;9.53;;;8.80;65.10;;;;;;5075562;28;20811;-66
2023/01/25 01:22:01;;;;;;;13.53;9.97;;;8.80;65.20;;;;;;5075272;28;20948;-66
2023/01/25 01:24:28;;;;;;;14.20;10.03;;;8.80;65.00;;;;;;5076100;28;20617;-66
2023/01/25 01:26:55;;;;;;;14.97;10.57;;;8.80;65.20;;;;;;5076389;28;20443;-66
2023/01/25 01:29:22;;;;;;;11.67;9.20;;;8.80;66.00;;;;;;5094076;28;20476;-64
2023/01/25 01:31:51;;;;;;;11.43;9.23;;;8.80;65.20;;;;;;5105186;28;20533;-64
2023/01/25 01:34:18;;;;;;;12.73;9.37;;;8.70;65.00;;;;;;5085540;28;20455;-64
2023/01/25 01:36:47;;;;;;;13.20;10.10;;;8.80;65.20;;;;;;5075533;28;20599;-64
2023/01/25 01:39:14;;;;;;;12.47;9.43;;;8.70;65.00;;;;;;5074248;28;20939;-64
2023/01/25 01:41:41;;;;;;;12.97;9.57;;;8.80;65.70;;;;;;5074819;28;20451;-66
2023/01/25 01:44:15;;;;;;;14.37;8.90;;;8.80;65.00;;;;;;5083293;28;20930;-65
2023/01/25 01:46:43;;;;;;;12.77;9.87;;;8.80;65.40;;;;;;5084628;28;20790;-65
2023/01/25 01:49:15;;;;;;;11.90;9.50;;;8.80;65.20;;;;;;5094642;28;20938;-66
2023/01/25 01:51:47;;;;;;;13.57;10.13;;;8.80;65.20;;;;;;5095710;28;20522;-65
2023/01/25 01:54:22;;;;;;;11.97;9.63;;;8.80;65.10;;;;;;5084114;28;20447;-65
2023/01/25 01:56:55;;;;;;;14.03;10.37;;;8.80;65.40;;;;;;5075032;28;20471;-66
2023/01/25 01:59:26;;;;;;;12.20;9.43;;;8.80;65.40;;;;;;5073195;28;20432;-66
2023/01/25 02:01:53;;;;;;;12.13;9.30;;;8.80;65.40;;;;;;5074980;28;20489;-65
2023/01/25 02:04:22;;;;;;;14.97;10.53;;;8.80;66.10;;;;;;5075298;28;20842;-66
2023/01/25 02:06:54;;;;;;;13.03;9.37;;;8.80;65.30;;;;;;5083805;28;20442;-66
2023/01/25 02:09:25;;;;;;;14.10;10.17;;;8.80;65.30;;;;;;5094049;28;20965;-66
2023/01/25 02:11:52;;;;;;;11.67;9.83;;;8.80;65.40;;;;;;5094783;28;20446;-64
2023/01/25 02:14:20;;;;;;;14.23;9.50;;;8.80;65.40;;;;;;5051702;28;20451;-65
2023/01/25 02:16:47;;;;;;;13.23;9.90;;;8.80;65.20;;;;;;5074062;28;20517;-65
2023/01/25 02:19:24;;;;;;;11.97;9.70;;;8.80;65.00;;;;;;5073650;28;20554;-65
2023/01/25 02:21:54;;;;;;;11.40;9.60;;;8.80;65.10;;;;;;5075600;28;20543;-66
2023/01/25 02:24:28;;;;;;;12.53;9.00;;;8.80;65.70;;;;;;5086622;28;20599;-66
2023/01/25 02:26:56;;;;;;;12.07;9.33;;;8.80;64.90;;;;;;5094354;28;20471;-65
2023/01/25 02:29:25;;;;;;;14.20;10.33;;;8.80;64.80;;;;;;5093675;28;20561;-66
2023/01/25 02:32:02;;;;;;;15.03;9.87;;;8.80;64.70;;;;;;5095045;28;20461;-66
2023/01/25 02:34:30;;;;;;;14.77;10.30;;;8.80;64.90;;;;;;5078852;28;20514;-66
2023/01/25 02:36:57;;;;;;;14.17;9.77;;;8.80;64.90;;;;;;5082773;28;20480;-64
2023/01/25 02:39:26;;;;;;;14.77;10.50;;;8.80;64.90;;;;;;5092686;28;20846;-64
2023/01/25 02:41:53;;;;;;;14.83;11.00;;;8.80;64.90;;;;;;5078305;28;20876;-66
2023/01/25 02:44:25;;;;;;;13.20;9.70;;;8.80;64.80;;;;;;5081554;28;20451;-66
2023/01/25 02:46:52;;;;;;;13.97;10.00;;;8.80;65.00;;;;;;5073775;28;20455;-66
2023/01/25 02:49:19;;;;;;;16.13;10.80;;;8.80;64.80;;;;;;5073071;28;20868;-65
2023/01/25 02:51:48;;;;;;;14.20;10.37;;;8.80;64.80;;;;;;5073499;28;20447;-65
2023/01/25 02:54:16;;;;;;;15.43;10.10;;;8.80;64.90;;;;;;5073160;28;20516;-65
2023/01/25 02:56:45;;;;;;;13.90;10.53;;;8.80;64.90;;;;;;5088422;28;20565;-65
2023/01/25 02:59:12;;;;;;;11.83;9.97;;;8.80;64.90;;;;;;5093904;28;20915;-65
2023/01/25 03:01:42;;;;;;;14.97;10.47;;;8.80;64.90;;;;;;5089747;28;20443;-65
2023/01/25 03:04:10;;;;;;;13.15;9.48;;;8.80;64.90;;;;;;5073095;28;20457;-65
2023/01/25 03:06:38;;;;;;;14.37;10.20;;;8.80;64.80;;;;;;5086602;28;20256;-65
2023/01/25 03:09:08;;;;;;;13.23;9.53;;;8.80;64.90;;;;;;5093125;28;20459;-66
2023/01/25 03:11:35;;;;;;;14.00;9.87;;;8.70;64.80;;;;;;5093559;28;20508;-66
2023/01/25 03:14:02;;;;;;;14.60;10.20;;;8.70;65.00;;;;;;5086160;28;20780;-66
2023/01/25 03:16:31;;;;;;;13.73;9.80;;;8.70;65.00;;;;;;5072687;28;20490;-65
2023/01/25 03:18:59;;;;;;;15.53;10.70;;;8.70;65.00;;;;;;5072932;28;20939;-66
2023/01/25 03:21:26;;;;;;;13.23;10.17;;;8.70;65.00;;;;;;5072478;28;20462;-65
2023/01/25 03:23:58;;;;;;;16.23;11.07;;;8.80;65.10;;;;;;5072611;28;20971;-65
2023/01/25 03:26:26;;;;;;;14.43;10.47;;;8.70;65.20;;;;;;5085388;28;20445;-65
2023/01/25 03:28:53;;;;;;;13.90;9.90;;;8.70;65.20;;;;;;5092925;28;20450;-64
2023/01/25 03:31:20;;;;;;;13.07;10.30;;;8.80;66.00;;;;;;5097236;28;20545;-65
2023/01/25 03:33:47;;;;;;;16.08;11.13;;;8.70;65.10;;;;;;5113341;28;20458;-65
2023/01/25 03:36:18;;;;;;;13.50;10.53;;;8.80;65.30;;;;;;5095344;28;20200;-65
2023/01/25 03:38:45;;;;;;;12.70;10.17;;;8.80;65.40;;;;;;5084713;28;20517;-64
2023/01/25 03:41:13;;;;;;;15.90;11.10;;;8.70;65.20;;;;;;5091467;28;20457;-65
2023/01/25 03:43:40;;;;;;;14.93;10.20;;;8.70;65.20;;;;;;5092717;28;20462;-64
2023/01/25 03:46:07;;;;;;;17.87;11.03;;;8.70;65.20;;;;;;5092196;28;20455;-64
2023/01/25 03:48:34;;;;;;;16.53;11.53;;;8.70;66.10;;;;;;5092787;28;20525;-66
2023/01/25 03:51:01;;;;;;;15.57;10.97;;;8.60;65.30;;;;;;5092632;28;20447;-65
2023/01/25 03:53:31;;;;;;;15.63;10.50;;;8.60;65.40;;;;;;5091063;28;20489;-65
2023/01/25 03:56:00;;;;;;;15.83;11.40;;;8.60;65.60;;;;;;5078939;28;20486;-65
2023/01/25 03:58:27;;;;;;;16.03;10.60;;;8.60;65.70;;;;;;5071968;28;20483;-65
2023/01/25 04:00:56;;;;;;;15.23;10.33;;;8.60;65.80;;;;;;5072307;28;20448;-65
2023/01/25 04:03:24;;;;;;;14.00;10.30;;;8.60;66.50;;;;;;5076016;28;20490;-67
2023/01/25 04:05:51;;;;;;;13.53;10.43;;;8.70;65.80;;;;;;5084493;28;20516;-64
2023/01/25 04:08:18;;;;;;;14.90;11.17;;;8.70;65.80;;;;;;5092289;28;20529;-65
2023/01/25 04:10:51;;;;;;;14.20;11.03;;;8.70;65.80;;;;;;5092227;28;20448;-64
2023/01/25 04:13:17;;;;;;;14.63;10.60;;;8.70;65.90;;;;;;5088814;28;20508;-64
2023/01/25 04:15:44;;;;;;;13.40;10.20;;;8.60;65.80;;;;;;5082172;28;20551;-66
2023/01/25 04:18:11;;;;;;;15.20;9.73;;;8.70;66.00;;;;;;5090126;28;20575;-67
2023/01/25 04:20:38;;;;;;;14.87;10.73;;;8.60;65.80;;;;;;5092389;28;20451;-65
2023/01/25 04:23:06;;;;;;;13.83;9.90;;;8.60;65.90;;;;;;5091903;28;20454;-66
2023/01/25 04:25:32;;;;;;;15.60;10.53;;;8.60;66.00;;;;;;5087920;28;20863;-65
2023/01/25 04:28:01;;;;;;;12.90;9.73;;;8.60;66.10;;;;;;5074871;28;20447;-64
2023/01/25 04:30:28;;;;;;;13.93;9.90;;;8.60;66.00;;;;;;5070990;28;20508;-64
2023/01/25 04:32:55;;;;;;;12.90;9.97;;;8.60;66.10;;;;;;5079676;28;20236;-65
2023/01/25 04:35:22;;;;;;;12.37;8.87;;;8.50;66.10;;;;;;5071178;28;20546;-65
2023/01/25 04:37:54;;;;;;;13.50;9.33;;;8.50;66.30;;;;;;5075858;28;20505;-66
2023/01/25 04:40:21;;;;;;;14.70;10.32;;;8.50;66.50;;;;;;5071149;28;20482;-65
2023/01/25 04:42:48;;;;;;;13.50;10.03;;;8.50;66.60;;;;;;5084391;28;20204;-66
2023/01/25 04:45:16;;;;;;;15.63;10.73;;;8.40;66.60;;;;;;5091294;28;20866;-66
2023/01/25 04:47:43;;;;;;;13.70;9.90;;;8.40;66.80;;;;;;5092110;28;20450;-65
2023/01/25 04:50:13;;;;;;;15.40;10.50;;;8.40;66.90;;;;;;5091515;28;20202;-65
2023/01/25 04:52:40;;;;;;;12.90;10.17;;;8.40;67.10;;;;;;5085460;28;20943;-67
2023/01/25 04:55:07;;;;;;;15.13;10.23;;;8.40;67.00;;;;;;5077457;28;20490;-65
2023/01/25 04:57:34;;;;;;;12.40;9.80;;;8.40;67.10;;;;;;5071109;28;20902;-65
2023/01/25 05:00:01;;;;;;;12.70;9.93;;;8.40;67.10;;;;;;5071586;28;20215;-65
2023/01/25 05:02:30;;;;;;;14.63;9.93;;;8.40;67.10;;;;;;5073144;28;20940;-65
2023/01/25 05:04:56;;;;;;;16.13;10.60;;;8.40;67.20;;;;;;5074356;28;20549;-65
2023/01/25 05:07:23;;;;;;;14.40;10.20;;;8.40;67.10;;;;;;5091256;28;20890;-67
2023/01/25 05:09:50;;;;;;;17.13;10.30;;;8.40;68.10;;;;;;5092125;28;20943;-65
2023/01/25 05:12:23;;;;;;;17.00;10.83;;;8.30;67.50;;;;;;5090948;28;20534;-65
2023/01/25 05:14:52;;;;;;;15.17;10.90;;;8.30;68.10;;;;;;5088695;28;20793;-66
2023/01/25 05:17:19;;;;;;;15.90;10.70;;;8.30;68.00;;;;;;5070827;28;20517;-67
2023/01/25 05:19:47;;;;;;;14.27;10.50;;;8.30;68.00;;;;;;5071649;28;20538;-67
2023/01/25 05:22:16;;;;;;;14.30;9.73;;;8.30;68.00;;;;;;5076603;28;20481;-66
2023/01/25 05:24:44;;;;;;;14.03;10.07;;;8.20;68.00;;;;;;5071937;28;20471;-66
2023/01/25 05:27:11;;;;;;;14.97;10.70;;;8.20;68.20;;;;;;5088900;28;20446;-66
2023/01/25 05:29:39;;;;;;;15.90;11.03;;;8.20;68.20;;;;;;5073142;28;20509;-66
2023/01/25 05:32:11;;;;;;;15.33;10.67;;;8.20;68.20;;;;;;5091372;28;20795;-66
2023/01/25 05:34:38;;;;;;;15.63;10.50;;;8.10;68.20;;;;;;5074332;28;20459;-66
2023/01/25 05:37:08;;;;;;;14.27;10.33;;;8.10;68.20;;;;;;5074461;28;20576;-64
2023/01/25 05:39:36;;;;;;;17.10;10.57;;;8.10;68.50;;;;;;5074508;28;20435;-66
2023/01/25 05:42:03;;;;;;;14.57;10.53;;;8.10;68.40;;;;;;5074969;28;20542;-66
2023/01/25 05:44:30;;;;;;;14.23;10.23;;;8.10;68.30;;;;;;5074028;28;20447;-66
2023/01/25 05:46:57;;;;;;;14.70;10.07;;;8.10;68.40;;;;;;5091228;28;20446;-67
2023/01/25 05:49:24;;;;;;;11.20;9.30;;;8.10;68.20;;;;;;5074466;28;20451;-66
2023/01/25 05:51:51;;;;;;;15.87;10.53;;;8.10;68.40;;;;;;5074548;28;20491;-65
2023/01/25 05:54:19;;;;;;;16.23;11.77;;;8.00;68.50;;;;;;5074332;28;20536;-65
2023/01/25 05:56:48;;;;;;;14.98;10.43;;;8.00;68.50;;;;;;5087195;28;20497;-66
2023/01/25 05:59:16;;;;;;;14.43;10.23;;;8.00;68.80;;;;;;5094474;28;20258;-65
2023/01/25 06:01:43;;;;;;;12.53;9.70;;;8.00;68.70;;;;;;5090046;28;20459;-67
2023/01/25 06:04:14;;;;;;;15.97;10.93;;;8.20;69.10;;;;;;5082829;28;20450;-66
2023/01/25 06:06:41;;;;;;;13.03;9.80;;;8.10;68.90;;;;;;5085127;28;20513;-65
2023/01/25 06:09:10;;;;;;;14.85;10.25;;;8.00;68.50;;;;;;5078028;28;20479;-65
2023/01/25 06:11:38;;;;;;;15.23;10.40;;;8.20;68.80;;;;;;5073366;28;20680;-65
2023/01/25 06:14:05;;;;;;;14.87;10.67;;;8.10;68.60;;;;;;5074690;28;20550;-65
2023/01/25 06:16:32;;;;;;;15.53;10.97;;;8.10;69.40;;;;;;5073697;28;20478;-65
2023/01/25 06:18:59;;;;;;;14.80;10.27;;;8.10;68.60;;;;;;5086293;28;20483;-67
2023/01/25 06:21:26;;;;;;;16.73;9.97;;;8.20;68.50;;;;;;5083307;28;20529;-69
2023/01/25 06:23:53;;;;;;;14.73;9.63;;;8.10;68.20;;;;;;5102184;28;20527;-68
2023/01/25 06:26:20;;;;;;;14.75;10.38;;;8.10;68.10;;;;;;5113824;28;20450;-66
2023/01/25 06:28:48;;;;;;;15.90;10.10;;;8.10;68.20;;;;;;5109260;28;20203;-68
2023/01/25 06:31:17;;;;;;;14.37;10.00;;;8.20;68.30;;;;;;5087691;28;20452;-68
2023/01/25 06:33:47;;;;;;;14.07;10.23;;;8.10;68.30;;;;;;5072770;28;20452;-68
2023/01/25 06:36:17;;;;;;;13.73;8.73;;;8.10;68.30;;;;;;5081954;28;20449;-68
2023/01/25 06:38:47;;;;;;;13.27;9.60;;;8.10;68.50;;;;;;5094017;28;20489;-69
2023/01/25 06:41:14;;;;;;;13.17;9.70;;;8.10;68.60;;;;;;5093854;28;20441;-67
2023/01/25 06:43:41;;;;;;;12.87;9.73;;;8.10;68.50;;;;;;5092973;28;20824;-67
2023/01/25 06:46:10;;;;;;;14.40;9.82;;;8.10;68.30;;;;;;5075426;28;20456;-67
2023/01/25 06:48:41;;;;;;;12.10;9.13;;;8.10;68.50;;;;;;5072911;28;20308;-68
2023/01/25 06:51:11;;;;;;;15.10;9.47;;;8.10;68.40;;;;;;5073718;28;20443;-67
2023/01/25 06:53:40;;;;;;;14.02;9.35;;;8.10;68.30;;;;;;5072947;28;20447;-68
2023/01/25 06:56:09;;;;;;;13.60;9.80;;;8.10;68.30;;;;;;5075547;28;20293;-68
2023/01/25 06:58:36;;;;;;;15.03;10.77;;;8.10;68.50;;;;;;5093210;28;20888;-68
2023/01/25 07:01:05;;;;;;;13.47;9.73;;;8.10;69.30;;;;;;5093420;28;20454;-68
2023/01/25 07:03:34;;;;;;;14.40;10.47;;;8.10;68.40;;;;;;5092604;28;20447;-68
2023/01/25 07:06:03;;;;;;;15.80;10.03;;;8.10;68.20;;;;;;5093688;28;20446;-68
2023/01/25 07:08:30;;;;;;;15.97;9.97;;;8.10;68.20;;;;;;5089106;28;20452;-68
2023/01/25 07:10:58;;;;;;;15.80;11.00;;;8.10;68.10;;;;;;5073300;28;20494;-68
2023/01/25 07:13:28;;;;;;;16.75;10.70;;;8.10;68.20;;;;;;5073281;28;20447;-68
2023/01/25 07:15:56;;;;;;;14.50;10.70;;;8.00;68.30;;;;;;5073983;28;20315;-68
2023/01/25 07:18:24;;;;;;;15.47;11.03;;;8.00;68.10;;;;;;5072253;28;20631;-68
2023/01/25 07:20:52;;;;;;;15.47;10.37;;;8.00;68.10;;;;;;5076951;28;20453;-68
2023/01/25 07:23:20;;;;;;;16.23;10.83;;;8.00;68.20;;;;;;5092649;28;20482;-68
2023/01/25 07:25:48;;;;;;;14.97;10.67;;;8.00;68.20;;;;;;5092869;28;20530;-68
2023/01/25 07:28:15;;;;;;;15.80;11.03;;;7.90;68.30;;;;;;5093316;28;20534;-68
2023/01/25 07:30:43;;;;;;;17.43;10.80;;;8.00;68.50;;;;;;5092399;28;20443;-68
2023/01/25 07:33:11;;;;;;;16.13;10.10;;;8.00;68.40;;;;;;5104660;28;20542;-68
2023/01/25 07:35:38;;;;;;;16.90;10.98;;;7.90;68.40;;;;;;5092486;28;20201;-68
2023/01/25 07:38:06;;;;;;;14.80;10.50;;;7.90;68.40;;;;;;5092776;28;20220;-68
2023/01/25 07:40:33;;;;;;;15.47;10.87;;;8.00;68.50;;;;;;5092222;28;20541;-68
2023/01/25 07:43:00;;;;;;;15.73;9.90;;;7.90;68.30;;;;;;5092819;28;20447;-68
2023/01/25 07:45:30;;;;;;;16.93;10.07;;;8.00;68.50;;;;;;5084321;28;20542;-68
2023/01/25 07:47:58;;;;;;;18.00;12.03;;;7.90;68.50;;;;;;5071943;28;20489;-68
2023/01/25 07:50:26;;;;;;;15.40;9.98;;;8.00;68.50;;;;;;5036248;28;20451;-68
2023/01/25 07:52:53;;;;;;;16.58;10.77;;;8.00;68.60;;;;;;5072488;28;20213;-68
2023/01/25 07:55:21;;;;;;;16.10;11.17;;;8.00;68.50;;;;;;5071825;28;20232;-68
2023/01/25 07:57:48;;;;;;;15.33;10.93;;;8.00;68.30;;;;;;5082204;28;20595;-68
2023/01/25 08:00:16;;;;;;;16.80;11.00;;;8.00;68.50;;;;;;5092244;28;20943;-68
2023/01/25 08:02:43;;;;;;;15.45;10.07;;;8.00;68.60;;;;;;5091812;28;20458;-68
2023/01/25 08:05:10;;;;;;;17.00;10.93;;;8.00;68.60;;;;;;5092293;28;20247;-68
2023/01/25 08:07:38;;;;;;;14.83;10.73;;;8.00;69.30;;;;;;5091425;28;20458;-68
2023/01/25 08:10:06;;;;;;;17.00;11.10;;;8.00;68.60;;;;;;5083015;28;20483;-68
2023/01/25 08:12:34;;;;;;;17.10;10.97;;;8.00;68.50;;;;;;5087199;28;20474;-68
2023/01/25 08:15:01;;;;;;;15.97;10.97;;;8.00;68.30;;;;;;5091692;28;20512;-67
2023/01/25 08:17:31;;;;;;;15.57;10.60;;;8.00;68.20;;;;;;5091175;28;20926;-67
2023/01/25 08:19:58;;;;;;;16.30;11.37;;;8.10;68.30;;;;;;5092381;28;20482;-68
2023/01/25 08:22:25;;;;;;;16.77;10.90;;;8.10;68.20;;;;;;5090739;28;20457;-66
2023/01/25 08:24:52;;;;;;;13.68;10.57;;;8.10;68.20;;;;;;5091989;28;20551;-67
2023/01/25 08:27:19;;;;;;;16.03;10.70;;;8.10;68.20;;;;;;5091919;28;20668;-69
2023/01/25 08:29:49;;;;;;;15.40;10.33;;;8.10;68.20;;;;;;5090983;28;20529;-68
2023/01/25 08:32:16;;;;;;;16.97;11.47;;;8.10;68.10;;;;;;5104378;28;20449;-68
2023/01/25 08:34:43;;;;;;;17.40;11.47;;;8.10;68.20;;;;;;5091060;28;20493;-67
2023/01/25 08:37:10;;;;;;;21.23;11.53;;;8.10;68.30;;;;;;5071762;28;21019;-68
2023/01/25 08:39:37;;;;;;;16.70;10.67;;;8.10;68.20;;;;;;5071066;28;20566;-68
2023/01/25 08:42:05;;;;;;;17.33;11.03;;;8.10;68.10;;;;;;5071796;28;20455;-68
2023/01/25 08:44:32;;;;;;;19.10;12.32;;;8.10;68.20;;;;;;5071130;28;20451;-68
2023/01/25 08:47:00;;;;;;;18.43;11.93;;;8.10;68.20;;;;;;5087349;28;20735;-68
2023/01/25 08:49:27;;;;;;;17.20;11.57;;;8.20;68.30;;;;;;5091446;28;20529;-68
2023/01/25 08:51:54;;;;;;;17.33;12.20;;;8.20;68.20;;;;;;5091902;28;20551;-68
2023/01/25 08:54:21;;;;;;;16.60;12.35;;;8.20;68.10;;;;;;5091945;28;20550;-68
2023/01/25 08:56:48;;;;;;;18.50;11.50;;;8.20;68.20;;;;;;5091356;28;20212;-68
2023/01/25 08:59:15;;;;;;;17.03;11.87;;;8.20;68.20;;;;;;5089497;28;20493;-68
2023/01/25 09:01:42;;;;;;;17.93;11.77;;;8.20;68.10;;;;;;5090048;28;20454;-67
2023/01/25 09:04:10;;;;;;;18.60;12.33;;;8.20;68.20;;;;;;5090432;28;20494;-68
2023/01/25 09:06:37;;;;;;;16.63;11.97;;;8.20;68.00;;;;;;5086478;28;20975;-68
2023/01/25 09:09:05;;;;;;;16.63;11.20;;;8.20;68.00;;;;;;5073718;28;20860;-68
2023/01/25 09:11:35;;;;;;;19.37;11.87;;;8.20;68.00;;;;;;5074005;28;20453;-68
2023/01/25 09:14:02;;;;;;;17.30;11.50;;;8.30;68.30;;;;;;5074215;28;21001;-67
2023/01/25 09:16:29;;;;;;;17.17;11.63;;;8.20;68.00;;;;;;5075836;28;20485;-68
2023/01/25 09:18:57;;;;;;;19.67;12.33;;;8.20;67.90;;;;;;5094234;28;21083;-68
2023/01/25 09:21:25;;;;;;;16.33;11.30;;;8.20;67.90;;;;;;5094624;28;20539;-67
2023/01/25 09:23:53;;;;;;;20.97;12.73;;;8.20;67.90;;;;;;5094269;28;20564;-68
2023/01/25 09:26:20;;;;;;;17.75;11.85;;;8.30;68.00;;;;;;5094904;28;20446;-68
2023/01/25 09:28:51;;;;;;;17.23;11.30;;;8.30;68.10;;;;;;5091600;28;20685;-68
2023/01/25 09:31:19;;;;;;;15.98;11.15;;;8.30;68.10;;;;;;5083371;28;20902;-68
2023/01/25 09:33:47;;;;;;;19.40;11.20;;;8.30;68.00;;;;;;5114113;28;20203;-68
2023/01/25 09:36:14;;;;;;;17.30;11.23;;;8.30;68.00;;;;;;5114902;28;20802;-68
2023/01/25 09:38:44;;;;;;;15.23;10.43;;;8.40;68.00;;;;;;5113719;28;20534;-67
2023/01/25 09:41:24;;;;;;;16.43;10.77;;;8.40;67.90;;;;;;5111405;28;20434;-67
2023/01/25 09:44:12;;;;;;;14.20;10.63;;;8.40;67.90;;;;;;5092812;28;20489;-67
2023/01/25 09:46:41;;;;;;;14.77;9.57;;;8.40;67.60;;;;;;5093788;28;20435;-68
2023/01/25 09:49:25;;;;;;;13.93;9.73;;;8.40;67.30;;;;;;5094197;28;20478;-67
2023/01/25 09:52:17;;;;;;;15.05;10.63;;;8.40;67.10;;;;;;5093642;28;20526;-65
2023/01/25 09:54:46;;;;;;;12.07;9.53;;;8.40;67.00;;;;;;5079907;28;20224;-67
2023/01/25 09:57:17;;;;;;;11.37;8.67;;;8.40;66.70;;;;;;5073874;28;20483;-67
2023/01/25 09:59:47;;;;;;;12.87;9.63;;;8.40;66.30;;;;;;5072823;28;20505;-66
2023/01/25 10:02:29;;;;;;;10.97;9.43;;;8.40;66.40;;;;;;5073172;28;20494;-68
2023/01/25 10:05:04;;;;;;;16.17;10.87;;;8.40;66.20;;;;;;5073893;28;20512;-68
2023/01/25 10:07:38;;;;;;;18.13;11.50;;;8.40;66.60;;;;;;5091351;28;20446;-67
2023/01/25 10:10:14;;;;;;;18.20;12.33;;;8.50;66.80;;;;;;5093554;28;20514;-67
2023/01/25 10:12:41;;;;;;;17.10;11.30;;;8.50;66.90;;;;;;5093395;28;20438;-66
2023/01/25 10:15:18;;;;;;;17.63;11.87;;;8.50;66.70;;;;;;5093346;28;20447;-67
2023/01/25 10:17:45;;;;;;;17.63;11.80;;;8.50;66.90;;;;;;5089621;28;21000;-67
2023/01/25 10:20:24;;;;;;;19.00;12.40;;;8.60;66.70;;;;;;5073175;28;20599;-68
2023/01/25 10:22:59;;;;;;;18.00;12.23;;;8.60;66.70;;;;;;5072786;28;20792;-68
2023/01/25 10:25:35;;;;;;;16.73;11.87;;;8.60;66.60;;;;;;5073397;28;20438;-68
2023/01/25 10:28:23;;;;;;;15.63;11.17;;;8.60;66.60;;;;;;5073372;28;20427;-69
2023/01/25 10:30:58;;;;;;;15.30;10.87;;;8.60;66.40;;;;;;5073891;28;20454;-68
2023/01/25 10:33:27;;;;;;;17.52;12.00;;;8.60;66.00;;;;;;5107707;28;20918;-68
2023/01/25 10:35:58;;;;;;;16.97;11.93;;;8.50;65.80;;;;;;5092901;28;20228;-69
2023/01/25 10:38:30;;;;;;;15.90;11.77;;;8.50;65.80;;;;;;5093308;28;20435;-68
2023/01/25 10:41:04;;;;;;;19.20;12.57;;;8.50;65.50;;;;;;5092401;28;20467;-67
2023/01/25 10:43:31;;;;;;;14.50;10.83;;;8.60;65.80;;;;;;5072145;28;20432;-68
2023/01/25 10:45:58;;;;;;;16.27;11.23;;;8.60;65.30;;;;;;5072868;28;20451;-68
2023/01/25 10:48:30;;;;;;;16.07;11.23;;;8.60;65.40;;;;;;5072509;28;20589;-68
2023/01/25 10:50:57;;;;;;;16.13;10.97;;;8.60;65.60;;;;;;5072840;28;20436;-68
2023/01/25 10:53:27;;;;;;;14.20;10.50;;;8.60;65.30;;;;;;5078410;28;20893;-68
2023/01/25 10:56:25;;;;;;;17.13;11.07;;;8.60;65.40;;;;;;5092403;28;20445;-69
2023/01/25 10:59:05;;;;;;;15.47;12.13;;;8.60;65.30;;;;;;5083911;28;20861;-66
2023/01/25 11:01:33;;;;;;;16.58;10.82;;;8.60;65.10;;;;;;5092001;28;20473;-69
2023/01/25 11:04:01;;;;;;;14.20;9.83;;;8.60;65.20;;;;;;5092642;28;20661;-68
2023/01/25 11:06:32;;;;;;;14.60;10.60;;;8.60;65.20;;;;;;5078083;28;20542;-66
2023/01/25 11:08:59;;;;;;;16.27;11.53;;;8.60;65.20;;;;;;5090284;28;20442;-68
2023/01/25 11:11:33;;;;;;;15.53;11.17;;;8.60;65.10;;;;;;5092965;28;20442;-68
2023/01/25 11:14:01;;;;;;;16.02;11.20;;;8.60;65.20;;;;;;5092388;28;20522;-67
2023/01/25 11:16:34;;;;;;;17.53;11.47;;;8.50;65.00;;;;;;5092444;28;20296;-68
2023/01/25 11:19:02;;;;;;;13.80;9.98;;;8.60;65.10;;;;;;5073826;28;21021;-67
2023/01/25 11:21:30;;;;;;;15.87;9.93;;;8.50;64.80;;;;;;5072215;28;20205;-68
2023/01/25 11:24:16;;;;;;;14.17;9.70;;;8.60;65.10;;;;;;5071701;28;20564;-68
2023/01/25 11:26:45;;;;;;;16.13;10.67;;;8.60;65.20;;;;;;5071289;28;20931;-68
2023/01/25 11:29:17;;;;;;;14.53;9.83;;;8.60;65.00;;;;;;5076459;28;20447;-68
2023/01/25 11:31:46;;;;;;;14.93;10.40;;;8.60;65.10;;;;;;5090836;28;20517;-68
2023/01/25 11:34:15;;;;;;;14.40;10.53;;;8.50;65.10;;;;;;5092112;28;20462;-67
2023/01/25 11:37:06;;;;;;;12.77;9.80;;;8.60;65.10;;;;;;5091500;28;20985;-67
2023/01/25 11:39:49;;;;;;;17.90;11.77;;;8.60;64.80;;;;;;5091686;28;20471;-67
2023/01/25 11:42:29;;;;;;;17.17;11.00;;;8.60;64.60;;;;;;5091307;28;20500;-69
2023/01/25 11:45:30;;;;;;;15.20;10.60;;;8.60;64.90;;;;;;5091114;28;20439;-67
2023/01/25 11:48:10;;;;;;;14.73;9.90;;;8.60;64.90;;;;;;5091025;28;20521;-68
2023/01/25 11:50:44;;;;;;;16.60;10.57;;;8.60;64.70;;;;;;5091482;28;20473;-67
2023/01/25 11:53:25;;;;;;;16.83;11.33;;;8.60;64.80;;;;;;5090789;28;20439;-68
2023/01/25 11:56:02;;;;;;;14.37;10.33;;;8.70;65.10;;;;;;5091128;28;20441;-68
2023/01/25 11:59:02;;;;;;;14.43;10.27;;;8.60;65.00;;;;;;5091295;28;20442;-68
2023/01/25 12:01:37;;;;;;;14.07;9.87;;;8.70;64.40;;;;;;5091675;28;20517;-67
2023/01/25 12:04:43;;;;;;;13.37;9.80;;;8.60;64.40;;;;;;5091656;28;21008;-67
2023/01/25 12:07:17;;;;;;;13.70;10.10;;;8.70;64.40;;;;;;5054908;28;20923;-68
2023/01/25 12:09:58;;;;;;;16.87;10.70;;;8.60;64.20;;;;;;5070682;28;20432;-66
2023/01/25 12:12:36;;;;;;;15.43;10.37;;;8.70;64.20;;;;;;5071609;28;20522;-67
2023/01/25 12:15:31;;;;;;;16.63;10.20;;;8.70;64.30;;;;;;5085623;28;20430;-67
2023/01/25 12:18:17;;;;;;;13.67;9.80;;;8.60;64.40;;;;;;5080085;28;20516;-68
2023/01/25 12:21:05;;;;;;;13.33;9.23;;;8.70;64.40;;;;;;5070383;28;20502;-68
2023/01/25 12:24:02;;;;;;;14.60;9.83;;;8.70;64.40;;;;;;5070811;28;20565;-67
2023/01/25 12:26:36;;;;;;;13.73;9.03;;;8.70;64.40;;;;;;5071349;28;20481;-67
2023/01/25 12:29:14;;;;;;;14.17;9.43;;;8.60;64.30;;;;;;5074167;28;20522;-67
2023/01/25 12:31:48;;;;;;;14.90;11.13;;;8.60;64.20;;;;;;5098628;28;20893;-68
2023/01/25 12:34:22;;;;;;;14.00;10.00;;;8.60;64.10;;;;;;5111426;28;20457;-69
2023/01/25 12:36:50;;;;;;;15.40;9.60;;;8.60;63.90;;;;;;5110686;28;20561;-68
2023/01/25 12:39:23;;;;;;;14.70;9.70;;;8.70;64.10;;;;;;5111005;28;20564;-67
2023/01/25 12:41:56;;;;;;;15.20;9.03;;;8.70;63.80;;;;;;5100287;28;20454;-67
2023/01/25 12:44:27;;;;;;;12.13;8.87;;;8.70;63.60;;;;;;5095085;28;20438;-68
2023/01/25 12:47:02;;;;;;;14.80;9.23;;;8.70;63.80;;;;;;5094802;28;20522;-68
2023/01/25 12:49:34;;;;;;;16.07;9.87;;;8.70;63.80;;;;;;5089611;28;20435;-68
2023/01/25 12:52:06;;;;;;;13.77;9.20;;;8.70;63.70;;;;;;5074953;28;20475;-68
2023/01/25 12:54:40;;;;;;;13.95;9.10;;;8.70;63.70;;;;;;5074703;28;20455;-68